sensor_id;sensor_type;location;lat;lon;timestamp;P1;durP1;ratioP1;P2;durP2;ratioP2
37087;SDS011;23002;52.676;6.432;2023-06-22T00:00:03;33.63;;;14.75;;
37087;SDS011;23002;52.676;6.432;2023-06-22T00:02:35;29.60;;;15.10;;
37087;SDS011;23002;52.676;6.432;2023-06-22T00:05:03;26.00;;;14.45;;
37087;SDS011;23002;52.676;6.432;2023-06-22T00:07:30;27.88;;;15.05;;
37087;SDS011;23002;52.676;6.432;2023-06-22T00:09:57;31.05;;;14.32;;
37087;SDS011;23002;52.676;6.432;2023-06-22T00:12:24;32.85;;;14.63;;
37087;SDS011;23002;52.676;6.432;2023-06-22T00:14:51;26.80;;;14.15;;
37087;SDS011;23002;52.676;6.432;2023-06-22T00:17:18;32.17;;;13.70;;
37087;SDS011;23002;52.676;6.432;2023-06-22T00:19:48;33.47;;;15.02;;
37087;SDS011;23002;52.676;6.432;2023-06-22T00:22:19;30.63;;;14.68;;
37087;SDS011;23002;52.676;6.432;2023-06-22T00:24:55;27.98;;;15.65;;
37087;SDS011;23002;52.676;6.432;2023-06-22T00:27:22;27.83;;;15.23;;
37087;SDS011;23002;52.676;6.432;2023-06-22T00:29:50;31.05;;;14.85;;
37087;SDS011;23002;52.676;6.432;2023-06-22T00:32:17;29.95;;;16.02;;
37087;SDS011;23002;52.676;6.432;2023-06-22T00:34:45;34.30;;;15.60;;
37087;SDS011;23002;52.676;6.432;2023-06-22T00:37:12;29.00;;;15.52;;
37087;SDS011;23002;52.676;6.432;2023-06-22T00:39:39;30.45;;;15.45;;
37087;SDS011;23002;52.676;6.432;2023-06-22T00:42:06;27.63;;;14.73;;
37087;SDS011;23002;52.676;6.432;2023-06-22T00:44:34;32.33;;;16.63;;
37087;SDS011;23002;52.676;6.432;2023-06-22T00:47:02;30.67;;;16.08;;
37087;SDS011;23002;52.676;6.432;2023-06-22T00:49:29;33.05;;;17.02;;
37087;SDS011;23002;52.676;6.432;2023-06-22T00:51:57;27.02;;;16.08;;
37087;SDS011;23002;52.676;6.432;2023-06-22T00:54:24;33.03;;;16.15;;
37087;SDS011;23002;52.676;6.432;2023-06-22T00:56:54;31.38;;;16.92;;
37087;SDS011;23002;52.676;6.432;2023-06-22T00:59:23;28.85;;;15.95;;
37087;SDS011;23002;52.676;6.432;2023-06-22T01:01:52;33.28;;;16.80;;
37087;SDS011;23002;52.676;6.432;2023-06-22T01:04:19;30.52;;;16.73;;
37087;SDS011;23002;52.676;6.432;2023-06-22T01:07:02;37.10;;;16.88;;
37087;SDS011;23002;52.676;6.432;2023-06-22T01:09:32;34.28;;;17.20;;
37087;SDS011;23002;52.676;6.432;2023-06-22T01:12:04;33.53;;;17.30;;
37087;SDS011;23002;52.676;6.432;2023-06-22T01:14:36;31.27;;;15.40;;
37087;SDS011;23002;52.676;6.432;2023-06-22T01:17:05;30.08;;;17.13;;
37087;SDS011;23002;52.676;6.432;2023-06-22T01:19:46;32.45;;;16.25;;
37087;SDS011;23002;52.676;6.432;2023-06-22T01:22:15;38.10;;;16.08;;
37087;SDS011;23002;52.676;6.432;2023-06-22T01:27:32;35.42;;;16.92;;
37087;SDS011;23002;52.676;6.432;2023-06-22T01:29:59;35.22;;;15.60;;
37087;SDS011;23002;52.676;6.432;2023-06-22T01:32:31;32.55;;;16.13;;
37087;SDS011;23002;52.676;6.432;2023-06-22T01:37:27;32.22;;;16.67;;
37087;SDS011;23002;52.676;6.432;2023-06-22T01:39:54;37.25;;;15.95;;
37087;SDS011;23002;52.676;6.432;2023-06-22T01:42:23;33.83;;;16.70;;
37087;SDS011;23002;52.676;6.432;2023-06-22T01:44:53;32.30;;;15.85;;
37087;SDS011;23002;52.676;6.432;2023-06-22T01:47:21;36.35;;;17.40;;
37087;SDS011;23002;52.676;6.432;2023-06-22T01:49:49;34.50;;;17.08;;
37087;SDS011;23002;52.676;6.432;2023-06-22T01:52:18;36.78;;;17.08;;
37087;SDS011;23002;52.676;6.432;2023-06-22T01:54:47;39.70;;;19.13;;
37087;SDS011;23002;52.676;6.432;2023-06-22T01:57:14;39.40;;;19.42;;
37087;SDS011;23002;52.676;6.432;2023-06-22T02:02:10;41.70;;;19.35;;
37087;SDS011;23002;52.676;6.432;2023-06-22T02:04:48;40.15;;;18.58;;
37087;SDS011;23002;52.676;6.432;2023-06-22T02:07:18;41.13;;;19.23;;
37087;SDS011;23002;52.676;6.432;2023-06-22T02:09:46;42.38;;;19.40;;
37087;SDS011;23002;52.676;6.432;2023-06-22T02:12:17;39.80;;;20.17;;
37087;SDS011;23002;52.676;6.432;2023-06-22T02:14:45;45.90;;;20.77;;
37087;SDS011;23002;52.676;6.432;2023-06-22T02:17:12;40.60;;;19.90;;
37087;SDS011;23002;52.676;6.432;2023-06-22T02:19:43;36.45;;;18.85;;
37087;SDS011;23002;52.676;6.432;2023-06-22T02:22:10;45.08;;;22.35;;
37087;SDS011;23002;52.676;6.432;2023-06-22T02:24:39;41.70;;;19.20;;
37087;SDS011;23002;52.676;6.432;2023-06-22T02:27:07;38.45;;;18.55;;
37087;SDS011;23002;52.676;6.432;2023-06-22T02:29:34;40.25;;;18.70;;
37087;SDS011;23002;52.676;6.432;2023-06-22T02:32:01;39.60;;;20.25;;
37087;SDS011;23002;52.676;6.432;2023-06-22T02:34:28;46.08;;;19.67;;
37087;SDS011;23002;52.676;6.432;2023-06-22T02:36:56;41.38;;;20.10;;
37087;SDS011;23002;52.676;6.432;2023-06-22T02:39:23;44.95;;;20.02;;
37087;SDS011;23002;52.676;6.432;2023-06-22T02:41:52;46.90;;;20.50;;
37087;SDS011;23002;52.676;6.432;2023-06-22T02:44:19;42.35;;;19.40;;
37087;SDS011;23002;52.676;6.432;2023-06-22T02:46:46;46.88;;;22.27;;
37087;SDS011;23002;52.676;6.432;2023-06-22T02:49:14;48.13;;;20.98;;
37087;SDS011;23002;52.676;6.432;2023-06-22T02:51:45;44.72;;;22.85;;
37087;SDS011;23002;52.676;6.432;2023-06-22T02:54:12;52.08;;;20.45;;
37087;SDS011;23002;52.676;6.432;2023-06-22T02:56:40;48.63;;;22.92;;
37087;SDS011;23002;52.676;6.432;2023-06-22T02:59:10;45.85;;;22.17;;
37087;SDS011;23002;52.676;6.432;2023-06-22T03:01:37;50.25;;;23.33;;
37087;SDS011;23002;52.676;6.432;2023-06-22T03:04:06;48.78;;;22.92;;
37087;SDS011;23002;52.676;6.432;2023-06-22T03:06:34;50.47;;;22.92;;
37087;SDS011;23002;52.676;6.432;2023-06-22T03:09:04;55.97;;;24.58;;
37087;SDS011;23002;52.676;6.432;2023-06-22T03:11:32;52.10;;;23.15;;
37087;SDS011;23002;52.676;6.432;2023-06-22T03:13:59;45.90;;;22.38;;
37087;SDS011;23002;52.676;6.432;2023-06-22T03:16:27;54.33;;;23.42;;
37087;SDS011;23002;52.676;6.432;2023-06-22T03:18:54;57.40;;;23.90;;
37087;SDS011;23002;52.676;6.432;2023-06-22T03:21:22;49.83;;;23.08;;
37087;SDS011;23002;52.676;6.432;2023-06-22T03:23:49;62.42;;;24.63;;
37087;SDS011;23002;52.676;6.432;2023-06-22T03:26:17;53.15;;;24.92;;
37087;SDS011;23002;52.676;6.432;2023-06-22T03:28:44;57.78;;;23.83;;
37087;SDS011;23002;52.676;6.432;2023-06-22T03:31:12;55.53;;;23.75;;
37087;SDS011;23002;52.676;6.432;2023-06-22T03:33:39;48.85;;;24.02;;
37087;SDS011;23002;52.676;6.432;2023-06-22T03:36:06;49.47;;;23.35;;
37087;SDS011;23002;52.676;6.432;2023-06-22T03:38:34;57.13;;;22.55;;
37087;SDS011;23002;52.676;6.432;2023-06-22T03:41:01;51.90;;;24.85;;
37087;SDS011;23002;52.676;6.432;2023-06-22T03:43:29;61.17;;;25.17;;
37087;SDS011;23002;52.676;6.432;2023-06-22T03:45:56;60.55;;;25.05;;
37087;SDS011;23002;52.676;6.432;2023-06-22T03:48:23;53.05;;;24.77;;
37087;SDS011;23002;52.676;6.432;2023-06-22T03:50:50;65.30;;;25.88;;
37087;SDS011;23002;52.676;6.432;2023-06-22T03:53:18;61.90;;;26.77;;
37087;SDS011;23002;52.676;6.432;2023-06-22T03:55:48;54.13;;;23.85;;
37087;SDS011;23002;52.676;6.432;2023-06-22T03:58:16;59.20;;;25.10;;
37087;SDS011;23002;52.676;6.432;2023-06-22T04:00:48;54.28;;;26.15;;
37087;SDS011;23002;52.676;6.432;2023-06-22T04:03:16;56.15;;;25.50;;
37087;SDS011;23002;52.676;6.432;2023-06-22T04:05:47;57.70;;;24.73;;
37087;SDS011;23002;52.676;6.432;2023-06-22T04:08:15;52.17;;;25.70;;
37087;SDS011;23002;52.676;6.432;2023-06-22T04:10:42;56.10;;;25.58;;
37087;SDS011;23002;52.676;6.432;2023-06-22T04:13:09;55.25;;;24.83;;
37087;SDS011;23002;52.676;6.432;2023-06-22T04:15:36;55.70;;;25.10;;
37087;SDS011;23002;52.676;6.432;2023-06-22T04:18:04;55.50;;;25.48;;
37087;SDS011;23002;52.676;6.432;2023-06-22T04:20:31;61.47;;;25.08;;
37087;SDS011;23002;52.676;6.432;2023-06-22T04:22:59;55.25;;;24.90;;
37087;SDS011;23002;52.676;6.432;2023-06-22T04:25:26;59.67;;;25.90;;
37087;SDS011;23002;52.676;6.432;2023-06-22T04:27:53;55.08;;;25.13;;
37087;SDS011;23002;52.676;6.432;2023-06-22T04:30:21;62.88;;;26.45;;
37087;SDS011;23002;52.676;6.432;2023-06-22T04:32:48;58.10;;;26.38;;
37087;SDS011;23002;52.676;6.432;2023-06-22T04:35:22;57.47;;;25.60;;
37087;SDS011;23002;52.676;6.432;2023-06-22T04:37:50;58.22;;;25.27;;
37087;SDS011;23002;52.676;6.432;2023-06-22T04:40:24;56.70;;;25.63;;
37087;SDS011;23002;52.676;6.432;2023-06-22T04:42:52;50.88;;;23.42;;
37087;SDS011;23002;52.676;6.432;2023-06-22T04:45:20;61.58;;;26.48;;
37087;SDS011;23002;52.676;6.432;2023-06-22T04:47:48;56.42;;;26.25;;
37087;SDS011;23002;52.676;6.432;2023-06-22T04:50:15;50.15;;;24.63;;
37087;SDS011;23002;52.676;6.432;2023-06-22T04:52:44;55.78;;;24.92;;
37087;SDS011;23002;52.676;6.432;2023-06-22T04:55:11;44.97;;;24.38;;
37087;SDS011;23002;52.676;6.432;2023-06-22T04:57:40;52.70;;;23.63;;
37087;SDS011;23002;52.676;6.432;2023-06-22T05:00:11;48.03;;;24.48;;
37087;SDS011;23002;52.676;6.432;2023-06-22T05:02:39;45.63;;;22.77;;
37087;SDS011;23002;52.676;6.432;2023-06-22T05:05:07;46.03;;;22.95;;
37087;SDS011;23002;52.676;6.432;2023-06-22T05:07:35;43.35;;;21.88;;
37087;SDS011;23002;52.676;6.432;2023-06-22T05:10:02;38.70;;;19.77;;
37087;SDS011;23002;52.676;6.432;2023-06-22T05:12:30;37.95;;;20.70;;
37087;SDS011;23002;52.676;6.432;2023-06-22T05:14:57;36.33;;;20.45;;
37087;SDS011;23002;52.676;6.432;2023-06-22T05:17:24;34.60;;;18.95;;
37087;SDS011;23002;52.676;6.432;2023-06-22T05:19:51;32.38;;;18.13;;
37087;SDS011;23002;52.676;6.432;2023-06-22T05:22:18;26.02;;;15.00;;
37087;SDS011;23002;52.676;6.432;2023-06-22T05:24:45;24.77;;;14.73;;
37087;SDS011;23002;52.676;6.432;2023-06-22T05:27:13;24.02;;;13.48;;
37087;SDS011;23002;52.676;6.432;2023-06-22T05:29:42;23.63;;;12.95;;
37087;SDS011;23002;52.676;6.432;2023-06-22T05:32:09;20.73;;;11.68;;
37087;SDS011;23002;52.676;6.432;2023-06-22T05:34:36;22.27;;;11.55;;
37087;SDS011;23002;52.676;6.432;2023-06-22T05:37:03;19.52;;;11.27;;
37087;SDS011;23002;52.676;6.432;2023-06-22T05:39:30;17.45;;;11.02;;
37087;SDS011;23002;52.676;6.432;2023-06-22T05:41:58;17.42;;;10.10;;
37087;SDS011;23002;52.676;6.432;2023-06-22T05:44:25;15.80;;;9.57;;
37087;SDS011;23002;52.676;6.432;2023-06-22T05:46:52;14.50;;;9.32;;
37087;SDS011;23002;52.676;6.432;2023-06-22T05:49:21;14.13;;;9.10;;
37087;SDS011;23002;52.676;6.432;2023-06-22T05:51:49;13.98;;;8.45;;
37087;SDS011;23002;52.676;6.432;2023-06-22T05:54:16;18.15;;;9.80;;
37087;SDS011;23002;52.676;6.432;2023-06-22T05:56:44;14.77;;;8.68;;
37087;SDS011;23002;52.676;6.432;2023-06-22T05:59:11;14.02;;;8.80;;
37087;SDS011;23002;52.676;6.432;2023-06-22T06:01:38;11.88;;;8.35;;
37087;SDS011;23002;52.676;6.432;2023-06-22T06:04:06;12.73;;;8.20;;
37087;SDS011;23002;52.676;6.432;2023-06-22T06:06:37;13.13;;;7.80;;
37087;SDS011;23002;52.676;6.432;2023-06-22T06:09:04;34.55;;;12.95;;
37087;SDS011;23002;52.676;6.432;2023-06-22T06:11:33;13.73;;;7.78;;
37087;SDS011;23002;52.676;6.432;2023-06-22T06:14:03;13.73;;;7.68;;
37087;SDS011;23002;52.676;6.432;2023-06-22T06:16:31;11.55;;;7.50;;
37087;SDS011;23002;52.676;6.432;2023-06-22T06:19:00;11.02;;;6.72;;
37087;SDS011;23002;52.676;6.432;2023-06-22T06:21:27;12.85;;;7.30;;
37087;SDS011;23002;52.676;6.432;2023-06-22T06:23:56;10.65;;;7.00;;
37087;SDS011;23002;52.676;6.432;2023-06-22T06:26:25;11.88;;;7.68;;
37087;SDS011;23002;52.676;6.432;2023-06-22T06:28:56;12.80;;;7.93;;
37087;SDS011;23002;52.676;6.432;2023-06-22T06:31:23;10.02;;;6.93;;
37087;SDS011;23002;52.676;6.432;2023-06-22T06:33:54;17.95;;;7.85;;
37087;SDS011;23002;52.676;6.432;2023-06-22T06:36:24;16.48;;;8.40;;
37087;SDS011;23002;52.676;6.432;2023-06-22T06:38:53;11.52;;;7.20;;
37087;SDS011;23002;52.676;6.432;2023-06-22T06:41:23;13.07;;;7.25;;
37087;SDS011;23002;52.676;6.432;2023-06-22T06:43:51;14.48;;;7.82;;
37087;SDS011;23002;52.676;6.432;2023-06-22T06:46:20;14.25;;;7.75;;
37087;SDS011;23002;52.676;6.432;2023-06-22T06:48:50;12.25;;;7.20;;
37087;SDS011;23002;52.676;6.432;2023-06-22T06:51:18;14.30;;;8.05;;
37087;SDS011;23002;52.676;6.432;2023-06-22T06:53:47;15.02;;;7.05;;
37087;SDS011;23002;52.676;6.432;2023-06-22T06:56:14;11.82;;;6.80;;
37087;SDS011;23002;52.676;6.432;2023-06-22T06:58:41;10.63;;;6.90;;
37087;SDS011;23002;52.676;6.432;2023-06-22T07:01:12;12.50;;;6.53;;
37087;SDS011;23002;52.676;6.432;2023-06-22T07:03:40;10.73;;;6.45;;
37087;SDS011;23002;52.676;6.432;2023-06-22T07:06:09;10.32;;;5.90;;
37087;SDS011;23002;52.676;6.432;2023-06-22T07:08:38;9.63;;;5.57;;
37087;SDS011;23002;52.676;6.432;2023-06-22T07:11:09;10.50;;;6.20;;
37087;SDS011;23002;52.676;6.432;2023-06-22T07:13:35;10.45;;;6.47;;
37087;SDS011;23002;52.676;6.432;2023-06-22T07:16:04;9.48;;;5.57;;
37087;SDS011;23002;52.676;6.432;2023-06-22T07:18:33;8.73;;;5.18;;
37087;SDS011;23002;52.676;6.432;2023-06-22T07:21:00;8.60;;;4.82;;
37087;SDS011;23002;52.676;6.432;2023-06-22T07:23:32;8.15;;;4.65;;
37087;SDS011;23002;52.676;6.432;2023-06-22T07:26:00;7.88;;;5.00;;
37087;SDS011;23002;52.676;6.432;2023-06-22T07:28:32;7.93;;;4.43;;
37087;SDS011;23002;52.676;6.432;2023-06-22T07:31:04;7.03;;;4.15;;
37087;SDS011;23002;52.676;6.432;2023-06-22T07:33:33;8.55;;;4.53;;
37087;SDS011;23002;52.676;6.432;2023-06-22T07:36:03;7.75;;;4.65;;
37087;SDS011;23002;52.676;6.432;2023-06-22T07:38:34;8.98;;;4.72;;
37087;SDS011;23002;52.676;6.432;2023-06-22T07:41:02;8.00;;;4.60;;
37087;SDS011;23002;52.676;6.432;2023-06-22T07:43:31;8.20;;;4.28;;
37087;SDS011;23002;52.676;6.432;2023-06-22T07:46:03;6.85;;;4.32;;
37087;SDS011;23002;52.676;6.432;2023-06-22T07:48:30;8.63;;;4.97;;
37087;SDS011;23002;52.676;6.432;2023-06-22T07:50:57;7.97;;;4.60;;
37087;SDS011;23002;52.676;6.432;2023-06-22T07:53:24;8.68;;;4.63;;
37087;SDS011;23002;52.676;6.432;2023-06-22T07:55:51;9.25;;;4.63;;
37087;SDS011;23002;52.676;6.432;2023-06-22T07:58:18;8.73;;;4.35;;
37087;SDS011;23002;52.676;6.432;2023-06-22T08:00:46;8.07;;;4.00;;
37087;SDS011;23002;52.676;6.432;2023-06-22T08:03:15;7.35;;;3.88;;
37087;SDS011;23002;52.676;6.432;2023-06-22T08:05:44;6.55;;;3.90;;
37087;SDS011;23002;52.676;6.432;2023-06-22T08:08:10;5.28;;;3.10;;
37087;SDS011;23002;52.676;6.432;2023-06-22T08:10:40;6.07;;;3.20;;
37087;SDS011;23002;52.676;6.432;2023-06-22T08:13:09;6.07;;;3.78;;
37087;SDS011;23002;52.676;6.432;2023-06-22T08:15:37;6.10;;;3.53;;
37087;SDS011;23002;52.676;6.432;2023-06-22T08:18:04;5.72;;;3.30;;
37087;SDS011;23002;52.676;6.432;2023-06-22T08:20:33;8.13;;;3.95;;
37087;SDS011;23002;52.676;6.432;2023-06-22T08:23:00;7.00;;;3.92;;
37087;SDS011;23002;52.676;6.432;2023-06-22T08:25:32;6.05;;;3.42;;
37087;SDS011;23002;52.676;6.432;2023-06-22T08:28:00;6.90;;;4.32;;
37087;SDS011;23002;52.676;6.432;2023-06-22T08:30:28;6.65;;;3.70;;
37087;SDS011;23002;52.676;6.432;2023-06-22T08:32:55;8.43;;;3.83;;
37087;SDS011;23002;52.676;6.432;2023-06-22T08:35:22;7.03;;;3.75;;
37087;SDS011;23002;52.676;6.432;2023-06-22T08:37:49;7.03;;;3.22;;
37087;SDS011;23002;52.676;6.432;2023-06-22T08:42:47;5.20;;;2.90;;
37087;SDS011;23002;52.676;6.432;2023-06-22T08:45:15;7.18;;;3.00;;
37087;SDS011;23002;52.676;6.432;2023-06-22T08:47:42;5.05;;;2.92;;
37087;SDS011;23002;52.676;6.432;2023-06-22T08:50:11;5.30;;;3.17;;
37087;SDS011;23002;52.676;6.432;2023-06-22T08:52:39;7.05;;;3.55;;
37087;SDS011;23002;52.676;6.432;2023-06-22T08:55:09;5.80;;;3.27;;
37087;SDS011;23002;52.676;6.432;2023-06-22T08:57:38;6.13;;;3.17;;
37087;SDS011;23002;52.676;6.432;2023-06-22T09:00:09;5.05;;;2.85;;
37087;SDS011;23002;52.676;6.432;2023-06-22T09:02:44;6.40;;;3.25;;
37087;SDS011;23002;52.676;6.432;2023-06-22T09:07:42;5.80;;;3.28;;
37087;SDS011;23002;52.676;6.432;2023-06-22T09:10:12;6.32;;;4.15;;
37087;SDS011;23002;52.676;6.432;2023-06-22T09:12:39;5.38;;;3.50;;
37087;SDS011;23002;52.676;6.432;2023-06-22T09:15:06;8.52;;;3.63;;
37087;SDS011;23002;52.676;6.432;2023-06-22T09:17:38;4.35;;;2.63;;
37087;SDS011;23002;52.676;6.432;2023-06-22T09:20:08;5.80;;;3.03;;
37087;SDS011;23002;52.676;6.432;2023-06-22T09:22:37;7.03;;;3.58;;
37087;SDS011;23002;52.676;6.432;2023-06-22T09:25:07;5.93;;;3.53;;
37087;SDS011;23002;52.676;6.432;2023-06-22T09:27:36;7.28;;;3.50;;
37087;SDS011;23002;52.676;6.432;2023-06-22T09:30:06;7.03;;;3.03;;
37087;SDS011;23002;52.676;6.432;2023-06-22T09:32:35;4.78;;;2.95;;
37087;SDS011;23002;52.676;6.432;2023-06-22T09:35:04;4.45;;;2.85;;
37087;SDS011;23002;52.676;6.432;2023-06-22T09:37:36;5.78;;;3.80;;
37087;SDS011;23002;52.676;6.432;2023-06-22T09:40:06;7.13;;;3.30;;
37087;SDS011;23002;52.676;6.432;2023-06-22T09:42:39;8.20;;;3.35;;
37087;SDS011;23002;52.676;6.432;2023-06-22T09:45:08;5.23;;;2.80;;
37087;SDS011;23002;52.676;6.432;2023-06-22T09:47:38;5.45;;;3.05;;
37087;SDS011;23002;52.676;6.432;2023-06-22T09:50:07;6.03;;;3.50;;
37087;SDS011;23002;52.676;6.432;2023-06-22T09:52:35;9.48;;;4.10;;
37087;SDS011;23002;52.676;6.432;2023-06-22T09:55:06;6.57;;;2.72;;
37087;SDS011;23002;52.676;6.432;2023-06-22T09:57:33;3.88;;;2.30;;
37087;SDS011;23002;52.676;6.432;2023-06-22T10:00:00;5.15;;;3.05;;
37087;SDS011;23002;52.676;6.432;2023-06-22T10:02:26;7.45;;;3.47;;
37087;SDS011;23002;52.676;6.432;2023-06-22T10:04:54;7.65;;;3.22;;
37087;SDS011;23002;52.676;6.432;2023-06-22T10:07:21;4.57;;;2.75;;
37087;SDS011;23002;52.676;6.432;2023-06-22T10:09:48;6.15;;;3.20;;
37087;SDS011;23002;52.676;6.432;2023-06-22T10:12:15;6.03;;;3.20;;
37087;SDS011;23002;52.676;6.432;2023-06-22T10:14:41;4.72;;;2.35;;
37087;SDS011;23002;52.676;6.432;2023-06-22T10:17:08;5.13;;;2.83;;
37087;SDS011;23002;52.676;6.432;2023-06-22T10:19:35;3.28;;;2.10;;
37087;SDS011;23002;52.676;6.432;2023-06-22T10:22:06;5.03;;;2.92;;
37087;SDS011;23002;52.676;6.432;2023-06-22T10:24:33;5.50;;;3.00;;
37087;SDS011;23002;52.676;6.432;2023-06-22T10:27:00;10.50;;;2.30;;
37087;SDS011;23002;52.676;6.432;2023-06-22T10:29:27;4.93;;;2.50;;
37087;SDS011;23002;52.676;6.432;2023-06-22T10:31:53;5.03;;;2.80;;
37087;SDS011;23002;52.676;6.432;2023-06-22T10:34:20;3.70;;;2.30;;
37087;SDS011;23002;52.676;6.432;2023-06-22T10:36:47;6.68;;;2.95;;
37087;SDS011;23002;52.676;6.432;2023-06-22T10:39:15;5.07;;;2.97;;
37087;SDS011;23002;52.676;6.432;2023-06-22T10:41:42;5.03;;;2.35;;
37087;SDS011;23002;52.676;6.432;2023-06-22T10:44:08;3.63;;;2.30;;
37087;SDS011;23002;52.676;6.432;2023-06-22T10:46:36;4.57;;;2.40;;
37087;SDS011;23002;52.676;6.432;2023-06-22T10:49:03;3.88;;;2.28;;
37087;SDS011;23002;52.676;6.432;2023-06-22T10:51:29;3.00;;;2.10;;
37087;SDS011;23002;52.676;6.432;2023-06-22T10:53:58;4.60;;;2.45;;
37087;SDS011;23002;52.676;6.432;2023-06-22T10:56:27;4.82;;;2.60;;
37087;SDS011;23002;52.676;6.432;2023-06-22T10:58:54;4.10;;;2.30;;
37087;SDS011;23002;52.676;6.432;2023-06-22T11:01:24;4.65;;;2.65;;
37087;SDS011;23002;52.676;6.432;2023-06-22T11:04:02;4.03;;;2.13;;
37087;SDS011;23002;52.676;6.432;2023-06-22T11:06:31;6.22;;;2.70;;
37087;SDS011;23002;52.676;6.432;2023-06-22T11:08:59;4.07;;;2.35;;
37087;SDS011;23002;52.676;6.432;2023-06-22T11:11:49;7.03;;;2.05;;
37087;SDS011;23002;52.676;6.432;2023-06-22T11:14:20;4.40;;;2.50;;
37087;SDS011;23002;52.676;6.432;2023-06-22T11:16:49;4.65;;;2.22;;
37087;SDS011;23002;52.676;6.432;2023-06-22T11:19:18;3.70;;;2.10;;
37087;SDS011;23002;52.676;6.432;2023-06-22T11:21:47;3.80;;;2.00;;
37087;SDS011;23002;52.676;6.432;2023-06-22T11:24:16;4.45;;;2.47;;
37087;SDS011;23002;52.676;6.432;2023-06-22T11:26:45;5.00;;;2.10;;
37087;SDS011;23002;52.676;6.432;2023-06-22T11:29:14;3.65;;;2.13;;
37087;SDS011;23002;52.676;6.432;2023-06-22T11:31:57;4.10;;;2.30;;
37087;SDS011;23002;52.676;6.432;2023-06-22T11:34:26;5.43;;;2.20;;
37087;SDS011;23002;52.676;6.432;2023-06-22T11:36:55;5.13;;;2.30;;
37087;SDS011;23002;52.676;6.432;2023-06-22T11:39:25;4.35;;;2.35;;
37087;SDS011;23002;52.676;6.432;2023-06-22T11:42:08;7.50;;;2.40;;
37087;SDS011;23002;52.676;6.432;2023-06-22T11:44:37;3.90;;;2.38;;
37087;SDS011;23002;52.676;6.432;2023-06-22T11:47:06;4.63;;;2.20;;
37087;SDS011;23002;52.676;6.432;2023-06-22T11:49:34;5.25;;;2.38;;
37087;SDS011;23002;52.676;6.432;2023-06-22T11:52:03;4.22;;;1.80;;
37087;SDS011;23002;52.676;6.432;2023-06-22T11:54:32;2.92;;;1.73;;
37087;SDS011;23002;52.676;6.432;2023-06-22T11:57:01;3.22;;;1.95;;
37087;SDS011;23002;52.676;6.432;2023-06-22T11:59:28;3.42;;;1.83;;
37087;SDS011;23002;52.676;6.432;2023-06-22T12:01:57;4.15;;;1.85;;
37087;SDS011;23002;52.676;6.432;2023-06-22T12:04:25;4.22;;;2.70;;
37087;SDS011;23002;52.676;6.432;2023-06-22T12:06:51;5.72;;;2.10;;
37087;SDS011;23002;52.676;6.432;2023-06-22T12:09:20;5.10;;;2.20;;
37087;SDS011;23002;52.676;6.432;2023-06-22T12:11:49;4.63;;;2.53;;
37087;SDS011;23002;52.676;6.432;2023-06-22T12:16:50;4.07;;;1.90;;
37087;SDS011;23002;52.676;6.432;2023-06-22T12:19:19;4.22;;;2.47;;
37087;SDS011;23002;52.676;6.432;2023-06-22T12:21:49;6.93;;;2.47;;
37087;SDS011;23002;52.676;6.432;2023-06-22T12:24:18;6.68;;;2.90;;
37087;SDS011;23002;52.676;6.432;2023-06-22T12:26:48;3.50;;;2.38;;
37087;SDS011;23002;52.676;6.432;2023-06-22T12:29:15;5.03;;;2.55;;
37087;SDS011;23002;52.676;6.432;2023-06-22T12:31:42;5.88;;;2.15;;
37087;SDS011;23002;52.676;6.432;2023-06-22T12:34:09;6.28;;;2.33;;
37087;SDS011;23002;52.676;6.432;2023-06-22T12:36:36;6.65;;;2.78;;
37087;SDS011;23002;52.676;6.432;2023-06-22T12:39:03;4.60;;;2.42;;
37087;SDS011;23002;52.676;6.432;2023-06-22T12:41:30;4.97;;;2.70;;
37087;SDS011;23002;52.676;6.432;2023-06-22T12:43:56;4.35;;;2.33;;
37087;SDS011;23002;52.676;6.432;2023-06-22T12:46:24;5.82;;;2.85;;
37087;SDS011;23002;52.676;6.432;2023-06-22T12:48:52;3.97;;;2.50;;
37087;SDS011;23002;52.676;6.432;2023-06-22T12:51:22;5.30;;;2.35;;
37087;SDS011;23002;52.676;6.432;2023-06-22T12:53:49;4.07;;;2.53;;
37087;SDS011;23002;52.676;6.432;2023-06-22T12:56:18;3.78;;;2.10;;
37087;SDS011;23002;52.676;6.432;2023-06-22T12:58:47;4.68;;;2.17;;
37087;SDS011;23002;52.676;6.432;2023-06-22T13:01:16;5.90;;;3.15;;
37087;SDS011;23002;52.676;6.432;2023-06-22T13:03:45;5.47;;;2.80;;
37087;SDS011;23002;52.676;6.432;2023-06-22T13:06:12;7.05;;;3.35;;
37087;SDS011;23002;52.676;6.432;2023-06-22T13:08:41;6.60;;;3.38;;
37087;SDS011;23002;52.676;6.432;2023-06-22T13:11:30;6.30;;;3.78;;
37087;SDS011;23002;52.676;6.432;2023-06-22T13:13:59;4.95;;;3.33;;
37087;SDS011;23002;52.676;6.432;2023-06-22T13:16:32;7.47;;;3.25;;
37087;SDS011;23002;52.676;6.432;2023-06-22T13:19:01;6.60;;;3.67;;
37087;SDS011;23002;52.676;6.432;2023-06-22T13:21:30;6.97;;;3.60;;
37087;SDS011;23002;52.676;6.432;2023-06-22T13:24:00;6.47;;;3.40;;
37087;SDS011;23002;52.676;6.432;2023-06-22T13:26:29;5.75;;;3.95;;
37087;SDS011;23002;52.676;6.432;2023-06-22T13:28:59;6.70;;;3.55;;
37087;SDS011;23002;52.676;6.432;2023-06-22T13:31:29;5.43;;;3.40;;
37087;SDS011;23002;52.676;6.432;2023-06-22T13:33:58;7.30;;;3.50;;
37087;SDS011;23002;52.676;6.432;2023-06-22T13:36:28;7.28;;;3.50;;
37087;SDS011;23002;52.676;6.432;2023-06-22T13:38:56;6.78;;;3.92;;
37087;SDS011;23002;52.676;6.432;2023-06-22T13:41:26;7.20;;;3.28;;
37087;SDS011;23002;52.676;6.432;2023-06-22T13:43:54;5.47;;;3.60;;
37087;SDS011;23002;52.676;6.432;2023-06-22T13:46:23;6.38;;;3.55;;
37087;SDS011;23002;52.676;6.432;2023-06-22T13:48:51;7.18;;;3.80;;
37087;SDS011;23002;52.676;6.432;2023-06-22T13:51:22;6.32;;;3.63;;
37087;SDS011;23002;52.676;6.432;2023-06-22T13:53:49;7.75;;;4.05;;
37087;SDS011;23002;52.676;6.432;2023-06-22T13:56:16;7.20;;;4.38;;
37087;SDS011;23002;52.676;6.432;2023-06-22T13:58:43;6.50;;;3.45;;
37087;SDS011;23002;52.676;6.432;2023-06-22T14:01:10;7.05;;;4.20;;
37087;SDS011;23002;52.676;6.432;2023-06-22T14:03:43;6.70;;;3.85;;
37087;SDS011;23002;52.676;6.432;2023-06-22T14:06:11;8.20;;;3.65;;
37087;SDS011;23002;52.676;6.432;2023-06-22T14:08:39;7.22;;;3.65;;
37087;SDS011;23002;52.676;6.432;2023-06-22T14:11:07;6.95;;;3.83;;
37087;SDS011;23002;52.676;6.432;2023-06-22T14:13:34;6.22;;;3.40;;
37087;SDS011;23002;52.676;6.432;2023-06-22T14:16:02;5.90;;;3.38;;
37087;SDS011;23002;52.676;6.432;2023-06-22T14:18:30;6.93;;;3.63;;
37087;SDS011;23002;52.676;6.432;2023-06-22T14:21:00;6.95;;;3.67;;
37087;SDS011;23002;52.676;6.432;2023-06-22T14:23:26;5.45;;;3.40;;
37087;SDS011;23002;52.676;6.432;2023-06-22T14:25:53;6.15;;;3.45;;
37087;SDS011;23002;52.676;6.432;2023-06-22T14:28:20;8.77;;;4.55;;
37087;SDS011;23002;52.676;6.432;2023-06-22T14:30:49;7.55;;;4.57;;
37087;SDS011;23002;52.676;6.432;2023-06-22T14:33:16;7.57;;;4.15;;
37087;SDS011;23002;52.676;6.432;2023-06-22T14:35:44;6.82;;;4.22;;
37087;SDS011;23002;52.676;6.432;2023-06-22T14:38:11;8.55;;;4.57;;
37087;SDS011;23002;52.676;6.432;2023-06-22T14:40:38;7.65;;;4.43;;
37087;SDS011;23002;52.676;6.432;2023-06-22T14:43:27;7.30;;;4.78;;
37087;SDS011;23002;52.676;6.432;2023-06-22T14:45:56;8.70;;;5.22;;
37087;SDS011;23002;52.676;6.432;2023-06-22T14:48:26;10.07;;;5.00;;
37087;SDS011;23002;52.676;6.432;2023-06-22T14:50:56;9.30;;;4.75;;
37087;SDS011;23002;52.676;6.432;2023-06-22T14:53:26;9.35;;;5.82;;
37087;SDS011;23002;52.676;6.432;2023-06-22T14:55:54;9.77;;;5.60;;
37087;SDS011;23002;52.676;6.432;2023-06-22T14:58:23;10.55;;;5.88;;